Annan, United Kingdom
Current Conditions -  °F | °C
As of 2:50 AM on Sunday 21 Dec 2014 (Local Time) from EGOM Reporting Station
Broken Clouds Broken Clouds  
Wind Chill: 32°   Ceiling: 100
Heat Index: 41°   Visibility: 6mi
Dew Point: 41°   Wind: 20mph
Humidity: 100%   Direction: 240°WSW
Pressure: 30.12"   Gusts: 31mph
Location:  54.99°N, 3.26°W
Report Text: EGOM 210250Z AUTO 24017G27KT 9999 BKN001/// 05/05 Q1020
Loading
Personal Weather Stations






























Interactive Weather Map New forecast layout! Learn more

10-Day Weather Forecast

Advertisements
Track Severe Weather on mobile